Time;durP1;ratioP1;P1;durP2;ratioP2;P2;SDS_P1;SDS_P2;PMS_P1;PMS_P2;Temp;Humidity;BMP_temperature;BMP_pressure;BME280_temperature;BME280_humidity;BME280_pressure;Samples;Min_cycle;Max_cycle;Signal;HPM_P1;HPM_P2
2024/01/14 00:01:58;;;;;;;6.63;1.87;;;;;;;;;;4974828;28;20234;-80
2024/01/14 00:04:26;;;;;;;1.83;1.23;;;;;;;;;;4974704;28;20320;-78
2024/01/14 00:06:51;;;;;;;5.97;1.80;;;;;;;;;;4957745;28;20229;-78
2024/01/14 00:09:19;;;;;;;6.90;1.83;;;;;;;;;;4956146;28;20223;-78
2024/01/14 00:11:48;;;;;;;4.93;1.50;;;;;;;;;;4973235;28;20296;-78
2024/01/14 00:14:14;;;;;;;4.77;1.47;;;;;;;;;;4965181;28;20305;-78
2024/01/14 00:16:42;;;;;;;5.13;1.67;;;;;;;;;;4971770;28;20236;-78
2024/01/14 00:19:09;;;;;;;3.70;1.63;;;;;;;;;;4956343;28;20596;-77
2024/01/14 00:21:35;;;;;;;7.07;1.50;;;;;;;;;;4956701;28;20240;-79
2024/01/14 00:24:03;;;;;;;4.33;1.43;;;;;;;;;;4956858;28;20297;-78
2024/01/14 00:26:32;;;;;;;3.27;1.10;;;;;;;;;;4933157;28;20229;-78
2024/01/14 00:28:58;;;;;;;6.97;1.50;;;;;;;;;;4949446;28;20226;-78
2024/01/14 00:31:26;;;;;;;3.00;1.60;;;;;;;;;;4952196;28;20233;-78
2024/01/14 00:33:52;;;;;;;6.30;1.80;;;;;;;;;;4971483;28;20233;-78
2024/01/14 00:36:17;;;;;;;5.70;1.80;;;;;;;;;;4971840;28;20225;-78
2024/01/14 00:38:50;;;;;;;8.20;2.17;;;;;;;;;;4987472;28;20612;-78
2024/01/14 00:41:16;;;;;;;7.53;2.20;;;;;;;;;;4960428;28;21201;-78
2024/01/14 00:43:42;;;;;;;8.00;2.27;;;;;;;;;;4946149;28;20311;-78
2024/01/14 00:46:13;;;;;;;8.13;2.13;;;;;;;;;;4971768;28;20759;-78
2024/01/14 00:48:38;;;;;;;9.00;2.30;;;;;;;;;;4970718;28;20230;-78
2024/01/14 00:51:06;;;;;;;10.93;4.03;;;;;;;;;;4970433;28;20238;-78
2024/01/14 00:53:31;;;;;;;12.07;3.03;;;;;;;;;;4970149;28;20245;-77
2024/01/14 00:55:57;;;;;;;8.83;3.07;;;;;;;;;;4970866;28;20230;-78
2024/01/14 00:58:22;;;;;;;11.43;3.50;;;;;;;;;;4970598;28;20244;-78
2024/01/14 01:00:50;;;;;;;13.30;3.03;;;;;;;;;;4970146;28;20237;-78
2024/01/14 01:03:16;;;;;;;12.57;2.90;;;;;;;;;;4965725;28;20977;-78
2024/01/14 01:05:44;;;;;;;6.53;1.93;;;;;;;;;;4971640;28;20241;-78
2024/01/14 01:08:09;;;;;;;9.37;2.40;;;;;;;;;;4972291;28;20222;-78
2024/01/14 01:10:35;;;;;;;12.33;2.43;;;;;;;;;;4967481;28;20235;-76
2024/01/14 01:13:00;;;;;;;7.00;1.80;;;;;;;;;;4954132;28;20277;-78
2024/01/14 01:15:26;;;;;;;12.83;2.70;;;;;;;;;;4935058;28;20285;-78
2024/01/14 01:17:51;;;;;;;9.83;2.10;;;;;;;;;;4955687;28;20256;-78
2024/01/14 01:20:17;;;;;;;11.87;2.17;;;;;;;;;;4962541;28;20221;-78
2024/01/14 01:22:42;;;;;;;9.03;2.20;;;;;;;;;;4938702;28;20226;-78
2024/01/14 01:25:10;;;;;;;14.10;2.53;;;;;;;;;;4969502;28;20233;-78
2024/01/14 01:27:36;;;;;;;7.97;2.47;;;;;;;;;;4969931;28;20296;-78
2024/01/14 01:30:03;;;;;;;15.03;2.67;;;;;;;;;;4931214;28;20322;-78
2024/01/14 01:32:29;;;;;;;14.70;2.43;;;;;;;;;;4953085;28;20252;-79
2024/01/14 01:34:54;;;;;;;11.13;2.17;;;;;;;;;;4970774;28;20229;-78
2024/01/14 01:37:22;;;;;;;11.87;2.40;;;;;;;;;;4953025;28;20222;-77
2024/01/14 01:39:50;;;;;;;8.83;2.00;;;;;;;;;;4941896;28;20230;-78
2024/01/14 01:42:15;;;;;;;11.63;2.20;;;;;;;;;;4951526;28;20952;-78
2024/01/14 01:44:41;;;;;;;9.33;2.30;;;;;;;;;;4985306;28;20253;-78
2024/01/14 01:47:08;;;;;;;6.70;1.90;;;;;;;;;;4968040;28;20222;-78
2024/01/14 01:49:33;;;;;;;22.10;2.40;;;;;;;;;;4944177;28;20229;-77
2024/01/14 01:51:59;;;;;;;9.00;2.30;;;;;;;;;;4968448;28;20292;-77
2024/01/14 01:54:26;;;;;;;13.47;2.60;;;;;;;;;;4929103;28;20226;-77
2024/01/14 01:56:54;;;;;;;16.13;2.20;;;;;;;;;;4955096;28;20226;-78
2024/01/14 01:59:20;;;;;;;10.50;2.40;;;;;;;;;;4954314;28;20229;-79
2024/01/14 02:01:48;;;;;;;11.70;2.67;;;;;;;;;;4955506;28;20820;-79
2024/01/14 02:04:15;;;;;;;7.33;2.50;;;;;;;;;;4949723;28;20310;-79
2024/01/14 02:06:41;;;;;;;11.30;2.33;;;;;;;;;;4954676;28;20229;-79
2024/01/14 02:09:09;;;;;;;11.23;2.50;;;;;;;;;;4929666;28;20787;-79
2024/01/14 02:11:37;;;;;;;12.87;2.70;;;;;;;;;;4956144;28;20312;-79
2024/01/14 02:14:05;;;;;;;8.17;2.33;;;;;;;;;;4972353;28;20257;-77
2024/01/14 02:16:33;;;;;;;16.53;3.00;;;;;;;;;;4955917;28;20700;-78
2024/01/14 02:19:00;;;;;;;9.97;2.50;;;;;;;;;;4968472;28;20681;-78
2024/01/14 02:21:32;;;;;;;10.83;2.80;;;;;;;;;;4952201;28;20224;-78
2024/01/14 02:24:25;;;;;;;13.33;2.93;;;;;;;;;;4953727;28;20566;-78
2024/01/14 02:26:52;;;;;;;9.93;3.07;;;;;;;;;;4972361;28;20237;-78
2024/01/14 02:29:23;;;;;;;13.33;3.37;;;;;;;;;;4948275;28;20226;-79
2024/01/14 02:31:54;;;;;;;9.90;2.93;;;;;;;;;;4971363;28;20260;-78
2024/01/14 02:34:20;;;;;;;7.50;3.20;;;;;;;;;;4961933;28;20281;-78
2024/01/14 02:36:45;;;;;;;9.57;3.47;;;;;;;;;;4974439;28;20230;-77
2024/01/14 02:39:16;;;;;;;11.57;3.60;;;;;;;;;;4968355;28;20210;-78
2024/01/14 02:41:46;;;;;;;10.80;3.23;;;;;;;;;;4969838;28;20232;-77
2024/01/14 02:44:15;;;;;;;7.80;3.33;;;;;;;;;;4953338;28;20230;-78
2024/01/14 02:46:41;;;;;;;8.03;3.17;;;;;;;;;;4973318;28;20230;-78
2024/01/14 02:49:06;;;;;;;8.73;3.03;;;;;;;;;;4970537;28;20666;-78
2024/01/14 02:51:34;;;;;;;9.23;3.30;;;;;;;;;;4970341;28;20597;-78
2024/01/14 02:54:01;;;;;;;10.20;2.97;;;;;;;;;;4970477;28;20226;-78
2024/01/14 02:56:27;;;;;;;9.03;2.83;;;;;;;;;;4968494;28;20305;-77
2024/01/14 02:58:58;;;;;;;6.33;2.67;;;;;;;;;;4969366;28;20237;-77
2024/01/14 03:01:26;;;;;;;10.70;2.43;;;;;;;;;;4957425;28;20222;-78
2024/01/14 03:03:51;;;;;;;7.10;2.00;;;;;;;;;;4970743;28;20237;-77
2024/01/14 03:06:20;;;;;;;6.20;2.00;;;;;;;;;;4969317;28;20228;-77
2024/01/14 03:08:45;;;;;;;7.63;2.10;;;;;;;;;;4955108;28;20225;-78
2024/01/14 03:11:11;;;;;;;8.37;2.10;;;;;;;;;;4953631;28;20712;-76
2024/01/14 03:13:38;;;;;;;5.07;2.17;;;;;;;;;;4973775;28;20230;-78
2024/01/14 03:16:04;;;;;;;6.37;2.10;;;;;;;;;;4976146;28;20256;-76
2024/01/14 03:18:32;;;;;;;7.33;3.13;;;;;;;;;;4982478;28;20229;-77
2024/01/14 03:20:58;;;;;;;8.33;2.37;;;;;;;;;;4999631;28;20237;-76
2024/01/14 03:23:25;;;;;;;6.10;3.03;;;;;;;;;;4986600;28;20222;-76
2024/01/14 03:25:54;;;;;;;5.20;2.77;;;;;;;;;;4984532;28;20234;-76
2024/01/14 03:28:19;;;;;;;5.90;2.33;;;;;;;;;;4979912;28;20244;-78
2024/01/14 03:30:45;;;;;;;5.77;2.80;;;;;;;;;;4977134;28;20687;-78
2024/01/14 03:33:13;;;;;;;7.13;2.90;;;;;;;;;;4951649;28;20589;-78
2024/01/14 03:35:38;;;;;;;7.23;2.53;;;;;;;;;;4955079;28;20240;-78
2024/01/14 03:38:04;;;;;;;6.43;2.40;;;;;;;;;;4970564;28;20237;-79
2024/01/14 03:40:32;;;;;;;7.10;2.73;;;;;;;;;;4937923;28;20305;-78
2024/01/14 03:43:02;;;;;;;7.03;2.47;;;;;;;;;;4970107;28;20245;-79
2024/01/14 03:45:30;;;;;;;5.00;2.20;;;;;;;;;;4970232;28;20240;-77
2024/01/14 03:47:55;;;;;;;12.63;2.60;;;;;;;;;;4955973;28;20230;-76
2024/01/14 03:50:23;;;;;;;7.73;2.47;;;;;;;;;;4959835;28;20809;-78
2024/01/14 03:52:50;;;;;;;9.53;4.77;;;;;;;;;;4953965;28;20262;-77
2024/01/14 03:55:16;;;;;;;11.10;2.67;;;;;;;;;;4943670;28;20247;-79
2024/01/14 03:57:44;;;;;;;12.33;2.43;;;;;;;;;;4970220;28;20884;-78
2024/01/14 04:04:00;;;;;;;10.27;3.20;;;;;;;;;;4971149;28;20296;-77
2024/01/14 04:06:31;;;;;;;10.07;3.57;;;;;;;;;;4969835;28;20242;-79
2024/01/14 04:08:57;;;;;;;11.03;3.63;;;;;;;;;;4970953;28;20324;-78
2024/01/14 04:11:22;;;;;;;9.87;4.00;;;;;;;;;;4974088;28;20217;-78
2024/01/14 04:13:53;;;;;;;13.07;4.03;;;;;;;;;;4954623;28;20241;-78
2024/01/14 04:16:18;;;;;;;6.57;3.00;;;;;;;;;;4971162;28;20313;-78
2024/01/14 04:18:46;;;;;;;6.90;3.40;;;;;;;;;;4954785;28;20289;-78
2024/01/14 04:21:23;;;;;;;7.00;3.07;;;;;;;;;;4974337;28;20312;-78
2024/01/14 04:23:50;;;;;;;9.30;3.50;;;;;;;;;;4982227;28;20465;-77
2024/01/14 04:26:24;;;;;;;6.83;3.00;;;;;;;;;;4970598;28;20218;-77
2024/01/14 04:28:52;;;;;;;11.07;3.23;;;;;;;;;;4958239;28;20237;-78
2024/01/14 04:31:20;;;;;;;8.47;3.60;;;;;;;;;;4970843;28;20702;-78
2024/01/14 04:33:50;;;;;;;14.27;3.50;;;;;;;;;;4972081;28;20225;-78
2024/01/14 04:36:19;;;;;;;8.67;3.23;;;;;;;;;;4955653;28;20222;-78
2024/01/14 04:38:47;;;;;;;10.47;3.70;;;;;;;;;;4973990;28;20679;-77
2024/01/14 04:41:12;;;;;;;9.37;4.00;;;;;;;;;;4954804;28;20230;-77
2024/01/14 04:43:40;;;;;;;5.87;3.63;;;;;;;;;;4956420;28;20222;-79
2024/01/14 04:46:12;;;;;;;11.57;3.73;;;;;;;;;;4945909;28;20281;-77
2024/01/14 04:48:43;;;;;;;7.80;4.00;;;;;;;;;;4957086;28;20624;-78
2024/01/14 04:51:11;;;;;;;10.40;3.97;;;;;;;;;;4985546;28;20242;-78
2024/01/14 04:53:38;;;;;;;10.63;3.47;;;;;;;;;;4956813;28;20218;-78
2024/01/14 04:56:06;;;;;;;8.30;4.07;;;;;;;;;;4955329;28;20261;-79
2024/01/14 04:58:32;;;;;;;9.87;3.17;;;;;;;;;;4956537;28;20754;-78
2024/01/14 05:01:00;;;;;;;12.80;3.33;;;;;;;;;;4988646;28;20230;-78
2024/01/14 05:03:27;;;;;;;9.77;3.33;;;;;;;;;;4967643;28;21005;-79
2024/01/14 05:05:53;;;;;;;11.17;3.40;;;;;;;;;;4988065;28;20238;-78
2024/01/14 05:08:19;;;;;;;15.13;3.47;;;;;;;;;;4963325;28;20288;-78
2024/01/14 05:10:46;;;;;;;7.40;3.00;;;;;;;;;;4971500;28;20256;-76
2024/01/14 05:13:15;;;;;;;8.73;3.03;;;;;;;;;;4971459;28;20322;-77
2024/01/14 05:15:40;;;;;;;13.73;3.00;;;;;;;;;;4956342;28;20233;-78
2024/01/14 05:18:08;;;;;;;10.80;2.47;;;;;;;;;;4955513;28;20242;-78
2024/01/14 05:20:33;;;;;;;12.57;4.53;;;;;;;;;;4989295;28;20261;-78
2024/01/14 05:23:01;;;;;;;11.53;2.67;;;;;;;;;;4970561;28;20218;-79
2024/01/14 05:25:27;;;;;;;10.47;2.80;;;;;;;;;;4971018;28;20253;-77
2024/01/14 05:27:52;;;;;;;12.73;3.53;;;;;;;;;;4961507;28;20238;-78
2024/01/14 05:30:22;;;;;;;7.17;3.27;;;;;;;;;;4969944;28;20333;-78
2024/01/14 05:32:50;;;;;;;9.60;3.90;;;;;;;;;;4973311;28;20722;-78
2024/01/14 05:35:15;;;;;;;10.50;4.73;;;;;;;;;;4987246;28;20230;-78
2024/01/14 05:37:41;;;;;;;14.93;5.43;;;;;;;;;;4979331;28;20240;-77
2024/01/14 05:40:07;;;;;;;11.40;5.77;;;;;;;;;;4966868;28;20230;-77
2024/01/14 05:42:35;;;;;;;13.23;6.30;;;;;;;;;;4970379;28;20214;-79
2024/01/14 05:45:05;;;;;;;14.57;6.70;;;;;;;;;;4972019;28;20316;-78
2024/01/14 05:47:31;;;;;;;14.80;6.87;;;;;;;;;;4958454;28;20230;-77
2024/01/14 05:49:57;;;;;;;16.20;7.00;;;;;;;;;;4973410;28;20814;-79
2024/01/14 05:52:22;;;;;;;13.50;6.60;;;;;;;;;;4971284;28;20225;-79
2024/01/14 05:54:48;;;;;;;16.60;6.23;;;;;;;;;;4995150;28;20718;-76
2024/01/14 05:57:16;;;;;;;14.87;7.60;;;;;;;;;;4970890;28;20222;-78
2024/01/14 05:59:42;;;;;;;18.13;7.10;;;;;;;;;;4987803;28;20233;-78
2024/01/14 06:02:07;;;;;;;13.67;7.00;;;;;;;;;;4984974;28;20342;-78
2024/01/14 06:04:33;;;;;;;18.33;7.07;;;;;;;;;;4971219;28;20230;-78
2024/01/14 06:06:59;;;;;;;12.30;5.60;;;;;;;;;;4970255;28;20225;-78
2024/01/14 06:09:27;;;;;;;10.87;5.40;;;;;;;;;;4970314;28;20230;-79
2024/01/14 06:11:52;;;;;;;13.60;5.87;;;;;;;;;;4972228;28;20233;-78
2024/01/14 06:14:23;;;;;;;12.40;5.17;;;;;;;;;;4953447;28;20229;-79
2024/01/14 06:16:51;;;;;;;9.60;4.70;;;;;;;;;;4970388;28;20222;-78
2024/01/14 06:19:18;;;;;;;11.00;4.90;;;;;;;;;;4953430;28;20272;-78
2024/01/14 06:21:44;;;;;;;7.93;4.20;;;;;;;;;;4937367;28;20245;-78
2024/01/14 06:24:12;;;;;;;9.20;3.67;;;;;;;;;;4967939;28;20241;-78
2024/01/14 06:26:38;;;;;;;12.30;3.87;;;;;;;;;;4970875;28;20237;-78
2024/01/14 06:29:03;;;;;;;7.73;3.40;;;;;;;;;;4953589;28;20226;-78
2024/01/14 06:31:31;;;;;;;9.57;4.00;;;;;;;;;;4970971;28;20639;-78
2024/01/14 06:33:57;;;;;;;12.60;4.30;;;;;;;;;;4986439;28;20253;-78
2024/01/14 06:36:22;;;;;;;13.47;4.40;;;;;;;;;;4970070;28;21807;-79
2024/01/14 06:38:52;;;;;;;9.73;4.67;;;;;;;;;;4969498;28;20230;-78
2024/01/14 06:41:23;;;;;;;14.20;6.73;;;;;;;;;;4965793;28;20680;-78
2024/01/14 06:43:49;;;;;;;13.87;6.87;;;;;;;;;;4953688;28;20233;-78
2024/01/14 06:46:15;;;;;;;19.57;7.67;;;;;;;;;;4941555;28;20714;-78
2024/01/14 06:48:43;;;;;;;14.30;7.43;;;;;;;;;;4933461;28;20295;-78
2024/01/14 06:51:11;;;;;;;16.07;8.10;;;;;;;;;;4921832;28;20251;-77
2024/01/14 06:53:36;;;;;;;13.73;7.33;;;;;;;;;;4967482;28;20226;-77
2024/01/14 06:56:02;;;;;;;15.03;7.73;;;;;;;;;;4965560;28;20295;-76
2024/01/14 06:58:28;;;;;;;19.90;6.73;;;;;;;;;;4928228;28;20249;-76
2024/01/14 07:00:56;;;;;;;14.47;7.27;;;;;;;;;;4958637;28;20242;-77
2024/01/14 07:03:26;;;;;;;14.40;6.27;;;;;;;;;;4966666;28;20265;-77
2024/01/14 07:05:54;;;;;;;16.33;5.90;;;;;;;;;;4966831;28;20304;-77
2024/01/14 07:08:24;;;;;;;15.00;5.83;;;;;;;;;;4966690;28;20222;-77
2024/01/14 07:10:50;;;;;;;10.13;4.90;;;;;;;;;;4966698;28;20230;-77
2024/01/14 07:13:19;;;;;;;18.37;5.33;;;;;;;;;;4967895;28;20725;-78
2024/01/14 07:15:47;;;;;;;12.40;4.30;;;;;;;;;;4942625;28;20230;-77
2024/01/14 07:18:12;;;;;;;11.33;4.23;;;;;;;;;;4964823;28;20228;-77
2024/01/14 07:20:40;;;;;;;12.37;3.83;;;;;;;;;;4968069;28;20225;-77
2024/01/14 07:23:06;;;;;;;19.10;5.13;;;;;;;;;;4967287;28;20210;-78
2024/01/14 07:25:31;;;;;;;25.30;10.60;;;;;;;;;;4945169;28;20236;-78
2024/01/14 07:27:59;;;;;;;18.47;9.37;;;;;;;;;;4959598;28;20233;-78
2024/01/14 07:30:24;;;;;;;17.97;5.03;;;;;;;;;;4966449;28;20231;-77
2024/01/14 07:32:50;;;;;;;17.77;13.27;;;;;;;;;;4964753;28;20238;-76
2024/01/14 07:35:15;;;;;;;17.07;6.03;;;;;;;;;;4980887;28;20219;-76
2024/01/14 07:37:41;;;;;;;12.27;5.90;;;;;;;;;;4966548;28;20672;-77
2024/01/14 07:40:07;;;;;;;14.90;7.03;;;;;;;;;;4942390;28;20244;-77
2024/01/14 07:42:32;;;;;;;19.53;6.37;;;;;;;;;;4943789;28;20225;-77
2024/01/14 07:44:58;;;;;;;15.20;5.90;;;;;;;;;;4944313;28;20769;-77
2024/01/14 07:47:27;;;;;;;16.13;6.00;;;;;;;;;;4959077;28;20222;-77
2024/01/14 07:49:59;;;;;;;12.17;6.30;;;;;;;;;;4951589;28;20285;-77
2024/01/14 07:52:25;;;;;;;20.63;8.70;;;;;;;;;;4951000;28;20218;-76
2024/01/14 07:54:54;;;;;;;15.00;5.60;;;;;;;;;;4987032;28;20224;-76
2024/01/14 07:57:24;;;;;;;16.80;6.73;;;;;;;;;;4987983;28;20230;-77
2024/01/14 07:59:50;;;;;;;15.77;5.80;;;;;;;;;;4974671;28;20226;-77
2024/01/14 08:02:16;;;;;;;17.03;6.47;;;;;;;;;;4974525;28;20224;-76
2024/01/14 08:04:41;;;;;;;19.60;6.10;;;;;;;;;;4989036;28;20601;-77
2024/01/14 08:07:09;;;;;;;13.37;5.50;;;;;;;;;;4972312;28;20233;-76
2024/01/14 08:09:35;;;;;;;19.80;5.83;;;;;;;;;;4964972;28;20320;-76
2024/01/14 08:12:01;;;;;;;20.13;6.10;;;;;;;;;;4988197;28;20222;-76
2024/01/14 08:14:26;;;;;;;20.00;6.10;;;;;;;;;;4955617;28;20225;-76
2024/01/14 08:16:52;;;;;;;19.23;6.70;;;;;;;;;;4965464;28;20227;-76
2024/01/14 08:19:20;;;;;;;21.27;6.50;;;;;;;;;;4969725;28;20222;-75
2024/01/14 08:21:50;;;;;;;11.57;5.80;;;;;;;;;;4972198;28;20230;-76
2024/01/14 08:24:16;;;;;;;14.50;5.93;;;;;;;;;;4934777;28;20231;-76
2024/01/14 08:26:43;;;;;;;20.50;6.77;;;;;;;;;;4952478;28;20651;-77
2024/01/14 08:29:12;;;;;;;16.37;7.20;;;;;;;;;;4975803;28;20334;-77
2024/01/14 08:31:41;;;;;;;18.40;7.53;;;;;;;;;;4958765;28;20230;-76
2024/01/14 08:34:07;;;;;;;13.57;7.50;;;;;;;;;;4971379;28;20229;-76
2024/01/14 08:36:37;;;;;;;15.10;7.30;;;;;;;;;;4955251;28;20226;-75
2024/01/14 08:39:05;;;;;;;14.47;7.40;;;;;;;;;;4950979;28;20230;-76
2024/01/14 08:41:30;;;;;;;15.93;7.30;;;;;;;;;;4974947;28;20222;-76
2024/01/14 08:43:59;;;;;;;16.23;6.77;;;;;;;;;;4955788;28;20844;-77
2024/01/14 08:46:27;;;;;;;16.67;7.20;;;;;;;;;;4970320;28;20226;-78
2024/01/14 08:48:53;;;;;;;16.50;8.10;;;;;;;;;;4971299;28;20237;-75
2024/01/14 08:51:18;;;;;;;15.23;7.23;;;;;;;;;;4970921;28;21085;-77
2024/01/14 08:53:44;;;;;;;17.80;7.93;;;;;;;;;;4956732;28;20222;-78
2024/01/14 08:56:13;;;;;;;16.17;7.83;;;;;;;;;;4957807;28;20218;-78
2024/01/14 08:58:38;;;;;;;16.87;7.37;;;;;;;;;;4965621;28;20663;-77
2024/01/14 09:01:06;;;;;;;12.80;6.80;;;;;;;;;;4972770;28;20245;-77
2024/01/14 09:03:31;;;;;;;14.90;7.30;;;;;;;;;;4972887;28;20230;-79
2024/01/14 09:05:59;;;;;;;18.53;7.30;;;;;;;;;;4958910;28;20230;-77
2024/01/14 09:08:24;;;;;;;13.30;7.50;;;;;;;;;;4977465;28;20285;-77
2024/01/14 09:10:50;;;;;;;18.30;7.40;;;;;;;;;;4960087;28;20237;-77
2024/01/14 09:13:15;;;;;;;20.10;8.23;;;;;;;;;;4973277;28;20226;-78
2024/01/14 09:15:43;;;;;;;19.30;7.07;;;;;;;;;;4975041;28;20533;-77
2024/01/14 09:18:11;;;;;;;13.10;6.83;;;;;;;;;;4975304;28;20222;-78
2024/01/14 09:20:39;;;;;;;19.97;7.57;;;;;;;;;;4989199;28;20781;-78
2024/01/14 09:23:07;;;;;;;13.13;6.37;;;;;;;;;;4976036;28;20257;-77
2024/01/14 09:25:33;;;;;;;18.93;7.27;;;;;;;;;;4973888;28;20307;-79
2024/01/14 09:28:01;;;;;;;19.17;6.53;;;;;;;;;;4975173;28;20230;-77
2024/01/14 09:30:26;;;;;;;18.70;7.00;;;;;;;;;;4972411;28;20723;-76
2024/01/14 09:32:52;;;;;;;16.07;6.37;;;;;;;;;;4936749;28;20234;-76
2024/01/14 09:35:17;;;;;;;16.07;6.87;;;;;;;;;;4984363;28;20222;-76
2024/01/14 09:37:48;;;;;;;18.00;7.67;;;;;;;;;;4969463;28;20707;-76
2024/01/14 09:40:14;;;;;;;17.73;6.20;;;;;;;;;;4966344;28;20225;-77
2024/01/14 09:42:44;;;;;;;15.23;6.67;;;;;;;;;;4966433;28;20260;-77
2024/01/14 09:45:10;;;;;;;9.43;4.93;;;;;;;;;;4960192;28;20229;-77
2024/01/14 09:47:38;;;;;;;13.23;7.10;;;;;;;;;;4950765;28;20230;-77
2024/01/14 09:50:07;;;;;;;21.70;5.97;;;;;;;;;;4953451;28;20301;-77
2024/01/14 09:52:35;;;;;;;13.53;5.90;;;;;;;;;;4967715;28;21008;-78
2024/01/14 09:55:05;;;;;;;13.83;6.07;;;;;;;;;;4950835;28;20226;-77
2024/01/14 09:57:31;;;;;;;18.20;5.97;;;;;;;;;;4954282;28;20715;-77
2024/01/14 09:59:57;;;;;;;14.73;5.93;;;;;;;;;;4948398;28;20229;-76
2024/01/14 10:02:23;;;;;;;14.50;6.23;;;;;;;;;;4967826;28;20226;-78
2024/01/14 10:04:51;;;;;;;14.83;6.10;;;;;;;;;;4947913;28;20229;-78
2024/01/14 10:07:17;;;;;;;18.23;6.00;;;;;;;;;;4971279;28;20292;-79
2024/01/14 10:09:43;;;;;;;9.47;4.77;;;;;;;;;;4942933;28;20250;-78
2024/01/14 10:12:09;;;;;;;13.93;4.97;;;;;;;;;;4946095;28;20324;-78
2024/01/14 10:14:37;;;;;;;13.57;5.43;;;;;;;;;;4957003;28;20237;-77
2024/01/14 10:17:06;;;;;;;11.43;4.93;;;;;;;;;;4956183;28;20222;-77
2024/01/14 10:19:34;;;;;;;13.50;4.60;;;;;;;;;;4976281;28;20239;-78
2024/01/14 10:22:00;;;;;;;10.97;5.87;;;;;;;;;;4957623;28;20218;-77
2024/01/14 10:24:28;;;;;;;19.40;5.20;;;;;;;;;;4974053;28;20233;-79
2024/01/14 10:26:54;;;;;;;12.53;4.37;;;;;;;;;;4974591;28;20257;-77
2024/01/14 10:29:23;;;;;;;8.03;4.10;;;;;;;;;;4976037;28;20226;-77
2024/01/14 10:31:49;;;;;;;9.67;3.93;;;;;;;;;;4959965;28;20225;-77
2024/01/14 10:34:18;;;;;;;9.27;4.50;;;;;;;;;;4977673;28;20416;-77
2024/01/14 10:36:45;;;;;;;11.97;4.30;;;;;;;;;;4965811;28;20241;-76
2024/01/14 10:39:12;;;;;;;15.63;4.30;;;;;;;;;;4960688;28;20241;-76
2024/01/14 10:41:38;;;;;;;8.63;4.30;;;;;;;;;;4980376;28;20256;-77
2024/01/14 10:44:06;;;;;;;9.17;3.97;;;;;;;;;;4979073;28;20218;-77
2024/01/14 10:46:32;;;;;;;9.63;4.20;;;;;;;;;;4954594;28;21011;-76
2024/01/14 10:49:06;;;;;;;14.60;4.53;;;;;;;;;;4972399;28;20257;-77
2024/01/14 10:51:40;;;;;;;11.73;4.63;;;;;;;;;;4932766;28;20269;-76
2024/01/14 10:54:29;;;;;;;12.73;4.07;;;;;;;;;;4964125;28;20677;-76
2024/01/14 10:57:18;;;;;;;10.90;3.93;;;;;;;;;;4973918;28;20222;-77
2024/01/14 10:59:46;;;;;;;11.87;3.90;;;;;;;;;;4953905;28;20222;-77
2024/01/14 11:02:19;;;;;;;10.83;3.53;;;;;;;;;;4957202;28;20229;-78
2024/01/14 11:04:45;;;;;;;11.20;3.97;;;;;;;;;;4968772;28;20257;-76
2024/01/14 11:07:15;;;;;;;10.50;3.73;;;;;;;;;;4959053;28;20222;-78
2024/01/14 11:09:41;;;;;;;13.33;5.17;;;;;;;;;;4974734;28;20229;-77
2024/01/14 11:12:32;;;;;;;8.27;4.13;;;;;;;;;;4970547;28;20218;-77
2024/01/14 11:15:25;;;;;;;9.90;4.80;;;;;;;;;;4934365;28;20218;-78
2024/01/14 11:18:31;;;;;;;17.50;7.33;;;;;;;;;;4965528;28;20217;-78
2024/01/14 11:21:39;;;;;;;12.60;4.80;;;;;;;;;;4977114;28;20289;-77
2024/01/14 11:24:05;;;;;;;13.50;5.60;;;;;;;;;;4895070;29;20243;-77
2024/01/14 11:26:33;;;;;;;12.33;5.50;;;;;;;;;;4975140;28;20220;-77
2024/01/14 11:29:01;;;;;;;13.37;5.20;;;;;;;;;;4970202;28;20379;-77
2024/01/14 11:32:04;;;;;;;10.77;5.13;;;;;;;;;;4962424;28;20226;-77
2024/01/14 11:34:52;;;;;;;10.10;4.30;;;;;;;;;;4976695;28;20230;-78
2024/01/14 11:37:29;;;;;;;12.00;4.90;;;;;;;;;;4974487;28;20275;-78
2024/01/14 11:40:16;;;;;;;12.67;4.23;;;;;;;;;;4977458;28;20217;-77
2024/01/14 11:42:51;;;;;;;9.60;4.00;;;;;;;;;;4993056;28;20281;-78
2024/01/14 11:45:19;;;;;;;7.53;4.13;;;;;;;;;;4975716;28;20242;-77
2024/01/14 11:47:47;;;;;;;16.27;5.00;;;;;;;;;;4960932;28;20305;-78
2024/01/14 11:50:14;;;;;;;12.97;3.90;;;;;;;;;;4958165;28;20701;-77
2024/01/14 11:52:50;;;;;;;9.20;4.27;;;;;;;;;;4949779;28;20302;-78
2024/01/14 11:55:18;;;;;;;14.07;5.50;;;;;;;;;;4968240;28;20668;-76
2024/01/14 11:57:47;;;;;;;12.43;6.93;;;;;;;;;;4951158;28;20222;-77
2024/01/14 12:00:13;;;;;;;13.23;5.33;;;;;;;;;;4952533;28;20254;-79
2024/01/14 12:02:38;;;;;;;6.77;4.53;;;;;;;;;;4941780;28;20226;-78
2024/01/14 12:05:17;;;;;;;13.77;5.27;;;;;;;;;;4954958;28;20206;-79
2024/01/14 12:07:48;;;;;;;12.03;4.50;;;;;;;;;;4942541;28;20273;-77
2024/01/14 12:10:16;;;;;;;9.83;4.57;;;;;;;;;;4984730;28;20622;-78
2024/01/14 12:12:42;;;;;;;5.97;3.37;;;;;;;;;;4969904;28;20226;-77
2024/01/14 12:15:13;;;;;;;7.67;3.90;;;;;;;;;;4973016;28;20703;-78
2024/01/14 12:17:41;;;;;;;6.03;3.37;;;;;;;;;;4957401;28;20234;-78
2024/01/14 12:20:08;;;;;;;6.50;3.27;;;;;;;;;;4957131;28;20341;-77
2024/01/14 12:22:36;;;;;;;11.77;3.90;;;;;;;;;;4954953;28;20565;-77
2024/01/14 12:25:01;;;;;;;7.13;3.53;;;;;;;;;;4946911;28;20274;-76
2024/01/14 12:27:29;;;;;;;7.93;3.40;;;;;;;;;;4942390;28;20288;-76
2024/01/14 12:29:55;;;;;;;11.97;4.00;;;;;;;;;;4937454;28;20233;-76
2024/01/14 12:32:21;;;;;;;9.20;5.20;;;;;;;;;;4946022;28;20222;-77
2024/01/14 12:34:48;;;;;;;6.97;3.90;;;;;;;;;;4968742;28;20218;-77
2024/01/14 12:37:18;;;;;;;8.63;3.67;;;;;;;;;;4933583;28;20346;-77
2024/01/14 12:39:44;;;;;;;10.23;3.83;;;;;;;;;;4946091;28;20631;-77
2024/01/14 12:42:11;;;;;;;5.50;3.00;;;;;;;;;;4953071;28;20229;-78
2024/01/14 12:44:42;;;;;;;8.23;3.30;;;;;;;;;;4970347;28;20272;-77
2024/01/14 12:47:09;;;;;;;5.83;3.20;;;;;;;;;;4969178;28;20218;-77
2024/01/14 12:49:35;;;;;;;8.37;3.10;;;;;;;;;;4952398;28;20238;-77
2024/01/14 12:52:03;;;;;;;7.70;3.00;;;;;;;;;;4970650;28;20718;-77
2024/01/14 12:54:29;;;;;;;9.63;2.70;;;;;;;;;;4952947;28;20280;-78
2024/01/14 12:57:03;;;;;;;6.53;3.30;;;;;;;;;;4953260;28;20222;-77
2024/01/14 12:59:34;;;;;;;12.07;3.73;;;;;;;;;;4974935;28;20229;-78
2024/01/14 13:02:01;;;;;;;7.67;5.47;;;;;;;;;;4953091;28;20222;-78
2024/01/14 13:04:27;;;;;;;8.03;4.67;;;;;;;;;;4970555;28;20245;-77
2024/01/14 13:06:53;;;;;;;7.67;5.13;;;;;;;;;;4952119;28;20231;-77
2024/01/14 13:09:20;;;;;;;8.17;3.80;;;;;;;;;;4952119;28;21081;-77
2024/01/14 13:11:48;;;;;;;7.47;4.17;;;;;;;;;;4968494;28;20218;-77
2024/01/14 13:14:13;;;;;;;6.43;3.90;;;;;;;;;;4969990;28;20225;-78
2024/01/14 13:16:41;;;;;;;10.33;4.83;;;;;;;;;;4951817;28;20226;-78
2024/01/14 13:19:09;;;;;;;10.63;3.87;;;;;;;;;;4968341;28;20226;-77
2024/01/14 13:21:37;;;;;;;6.40;3.83;;;;;;;;;;4951558;28;20236;-77
2024/01/14 13:24:02;;;;;;;11.90;3.93;;;;;;;;;;4952113;28;20692;-76
2024/01/14 13:26:30;;;;;;;7.90;4.20;;;;;;;;;;4950545;28;20317;-78
2024/01/14 13:28:58;;;;;;;8.23;3.90;;;;;;;;;;4963643;28;20229;-77
2024/01/14 13:31:27;;;;;;;8.23;3.83;;;;;;;;;;4981933;28;20297;-77
2024/01/14 13:33:55;;;;;;;7.83;4.10;;;;;;;;;;4985446;28;20214;-77
2024/01/14 13:36:20;;;;;;;7.63;3.80;;;;;;;;;;4946522;28;20218;-77
2024/01/14 13:38:49;;;;;;;10.00;6.07;;;;;;;;;;4984324;28;20234;-77
2024/01/14 13:41:14;;;;;;;9.00;4.37;;;;;;;;;;4967156;28;20264;-76
2024/01/14 13:43:40;;;;;;;7.83;3.57;;;;;;;;;;4968853;28;20915;-86
2024/01/14 13:46:06;;;;;;;7.57;3.60;;;;;;;;;;4974114;28;20232;-85
2024/01/14 13:48:34;;;;;;;10.27;6.10;;;;;;;;;;4956500;28;20234;-87
2024/01/14 13:51:01;;;;;;;9.57;4.63;;;;;;;;;;4967505;28;20226;-86
2024/01/14 13:53:27;;;;;;;5.70;3.17;;;;;;;;;;4966294;28;20218;-86
2024/01/14 13:55:55;;;;;;;9.17;3.60;;;;;;;;;;4972093;28;20218;-87
2024/01/14 13:58:22;;;;;;;8.57;3.50;;;;;;;;;;4990293;28;20214;-88
2024/01/14 14:00:48;;;;;;;9.73;5.77;;;;;;;;;;4958645;28;20257;-86
2024/01/14 14:03:15;;;;;;;8.77;6.43;;;;;;;;;;4976436;28;20273;-87
2024/01/14 14:05:48;;;;;;;6.50;2.90;;;;;;;;;;4958544;28;20229;-86
2024/01/14 14:08:18;;;;;;;11.63;8.63;;;;;;;;;;4938761;28;20222;-85
2024/01/14 14:10:46;;;;;;;14.97;10.80;;;;;;;;;;4950038;28;20244;-87
2024/01/14 14:13:16;;;;;;;15.10;10.17;;;;;;;;;;4980357;28;20729;-85
2024/01/14 14:15:42;;;;;;;11.37;6.63;;;;;;;;;;4976330;28;20293;-86
2024/01/14 14:18:07;;;;;;;9.10;5.33;;;;;;;;;;4952284;28;20685;-87
2024/01/14 14:20:36;;;;;;;8.73;5.17;;;;;;;;;;4956148;28;20229;-85
2024/01/14 14:23:06;;;;;;;8.03;4.63;;;;;;;;;;4943398;28;20218;-85
2024/01/14 14:25:32;;;;;;;8.07;5.43;;;;;;;;;;4960316;28;20221;-85
2024/01/14 14:28:00;;;;;;;8.90;6.20;;;;;;;;;;4962640;28;20252;-87
2024/01/14 14:30:28;;;;;;;8.47;6.23;;;;;;;;;;4957703;28;20230;-83
2024/01/14 14:32:53;;;;;;;9.57;7.80;;;;;;;;;;4976373;28;20264;-83
2024/01/14 14:35:19;;;;;;;9.40;7.53;;;;;;;;;;4956713;28;20257;-84
2024/01/14 14:37:45;;;;;;;7.33;5.97;;;;;;;;;;4985817;28;20230;-87
2024/01/14 14:40:13;;;;;;;9.63;7.70;;;;;;;;;;4975371;28;20295;-86
2024/01/14 14:42:41;;;;;;;11.50;8.27;;;;;;;;;;4965418;28;20249;-84
2024/01/14 14:45:09;;;;;;;13.60;8.57;;;;;;;;;;4961818;28;20222;-86